Time;durP1;ratioP1;P1;durP2;ratioP2;P2;SDS_P1;SDS_P2;PMS_P1;PMS_P2;Temp;Humidity;BMP_temperature;BMP_pressure;BME280_temperature;BME280_humidity;BME280_pressure;Samples;Min_cycle;Max_cycle;Signal;HPM_P1;HPM_P2
2021/05/18 00:00:08;;;;;;;0.30;0.30;;;11.40;99.90;;;;;;4385460;32;20077;-67
2021/05/18 00:02:33;;;;;;;0.40;0.40;;;11.50;99.90;;;;;;4384867;32;20084;-66
2021/05/18 00:04:59;;;;;;;0.43;0.43;;;11.50;99.90;;;;;;4398984;32;20125;-67
2021/05/18 00:07:25;;;;;;;0.30;0.30;;;11.50;99.90;;;;;;4385385;32;20070;-66
2021/05/18 00:11:51;;;;;;;0.30;0.30;;;11.40;99.90;;;;;;4400033;32;20729;-66
2021/05/18 00:12:38;;;;;;;0.60;0.60;;;11.40;99.90;;;;;;4392686;32;20082;-64
2021/05/18 00:15:08;;;;;;;0.40;0.40;;;11.30;99.90;;;;;;4398913;32;20058;-65
2021/05/18 00:17:34;;;;;;;0.30;0.30;;;11.20;99.90;;;;;;4398422;32;20090;-65
2021/05/18 00:19:59;;;;;;;3.72;1.98;;;11.20;99.90;;;;;;4399915;32;20567;-65
2021/05/18 00:22:25;;;;;;;0.37;0.37;;;11.20;99.90;;;;;;4385588;32;20506;-65
2021/05/18 00:24:50;;;;;;;0.30;0.30;;;11.20;99.90;;;;;;4399875;32;20116;-65
2021/05/18 00:27:19;;;;;;;0.30;0.30;;;11.20;99.90;;;;;;4400484;32;20073;-65
2021/05/18 00:29:44;;;;;;;0.65;0.65;;;11.10;99.90;;;;;;4385176;32;20085;-65
2021/05/18 00:32:10;;;;;;;0.40;0.40;;;11.00;99.90;;;;;;4399369;32;20408;-65
2021/05/18 00:34:35;;;;;;;0.50;0.50;;;11.00;99.90;;;;;;4399859;32;20081;-65
2021/05/18 00:37:01;;;;;;;0.20;0.20;;;11.00;99.90;;;;;;4398339;32;20078;-65
2021/05/18 00:39:26;;;;;;;0.30;0.30;;;11.10;99.90;;;;;;4399813;32;20078;-65
2021/05/18 00:41:52;;;;;;;0.40;0.40;;;11.20;99.90;;;;;;4399437;32;20070;-65
2021/05/18 00:44:17;;;;;;;0.30;0.30;;;11.10;99.90;;;;;;4399711;32;20396;-65
2021/05/18 00:46:43;;;;;;;0.20;0.20;;;11.10;99.90;;;;;;4397616;32;20518;-65
2021/05/18 00:49:08;;;;;;;0.30;0.30;;;11.10;99.90;;;;;;4399603;32;20070;-65
2021/05/18 00:51:37;;;;;;;0.65;0.65;;;11.10;99.90;;;;;;4399581;32;20112;-64
2021/05/18 00:54:06;;;;;;;0.20;0.20;;;11.20;99.90;;;;;;4399326;32;20070;-65
2021/05/18 00:58:25;;;;;;;0.30;0.30;;;11.10;99.90;;;;;;4399692;32;20589;-66
2021/05/18 00:59:17;;;;;;;0.30;0.30;;;11.10;99.90;;;;;;4391488;32;20087;-65
2021/05/18 01:01:43;;;;;;;0.37;0.37;;;11.00;99.90;;;;;;4385522;32;20073;-65
2021/05/18 01:04:13;;;;;;;0.40;0.40;;;11.00;99.90;;;;;;4398342;32;20078;-65
2021/05/18 01:06:40;;;;;;;0.53;0.53;;;10.90;99.90;;;;;;4385680;32;20090;-65
2021/05/18 01:09:09;;;;;;;0.30;0.30;;;10.90;99.90;;;;;;4400072;32;20058;-65
2021/05/18 01:11:38;;;;;;;0.30;0.30;;;11.00;99.90;;;;;;4398121;32;20102;-65
2021/05/18 01:14:10;;;;;;;0.30;0.30;;;10.90;99.90;;;;;;4398208;32;20520;-65
2021/05/18 01:16:40;;;;;;;0.47;0.47;;;10.90;99.90;;;;;;4385154;32;20534;-65
2021/05/18 01:19:06;;;;;;;0.20;0.20;;;10.70;99.90;;;;;;4399219;32;20408;-65
2021/05/18 01:21:32;;;;;;;0.43;0.43;;;10.60;99.90;;;;;;4385793;32;20090;-65
2021/05/18 01:23:58;;;;;;;0.30;0.30;;;10.50;99.90;;;;;;4385642;32;20082;-65
2021/05/18 01:26:25;;;;;;;0.30;0.30;;;10.50;99.90;;;;;;4384784;32;20120;-65
2021/05/18 01:28:51;;;;;;;0.32;0.32;;;10.50;99.90;;;;;;4398114;32;20452;-65
2021/05/18 01:31:21;;;;;;;0.20;0.20;;;10.60;99.90;;;;;;4397510;32;20523;-65
2021/05/18 01:33:47;;;;;;;0.37;0.37;;;10.60;99.90;;;;;;4397940;32;20058;-65
2021/05/18 01:36:16;;;;;;;0.40;0.40;;;10.50;99.90;;;;;;4384190;32;20504;-65
2021/05/18 01:38:50;;;;;;;0.30;0.30;;;10.50;99.90;;;;;;4398217;32;20136;-65
2021/05/18 01:44:05;;;;;;;0.30;0.30;;;10.50;99.90;;;;;;4373499;32;20125;-65
2021/05/18 01:46:31;;;;;;;0.85;0.52;;;10.50;99.90;;;;;;4398133;32;20069;-65
2021/05/18 01:49:00;;;;;;;0.30;0.30;;;10.50;99.90;;;;;;4396324;32;20177;-65
2021/05/18 01:51:29;;;;;;;0.77;0.50;;;10.50;99.90;;;;;;4398848;32;20074;-65
2021/05/18 01:53:57;;;;;;;0.20;0.20;;;10.40;99.90;;;;;;4398377;32;20129;-65
2021/05/18 01:56:40;;;;;;;0.32;0.30;;;10.30;99.90;;;;;;4397113;32;20133;-65
2021/05/18 01:59:09;;;;;;;0.40;0.40;;;10.20;99.90;;;;;;4385900;32;20061;-65
2021/05/18 02:01:35;;;;;;;0.30;0.30;;;10.10;99.90;;;;;;4375684;32;20059;-65
2021/05/18 02:04:01;;;;;;;0.20;0.20;;;10.10;99.90;;;;;;4385358;32;20058;-65
2021/05/18 02:06:28;;;;;;;0.20;0.20;;;10.00;99.90;;;;;;4396866;32;20074;-65
2021/05/18 02:08:54;;;;;;;0.37;0.37;;;10.10;99.90;;;;;;4398051;32;20086;-65
2021/05/18 02:11:19;;;;;;;0.43;0.43;;;10.00;99.90;;;;;;4397285;32;20143;-65
2021/05/18 02:13:48;;;;;;;0.40;0.40;;;9.80;99.90;;;;;;4398217;32;20078;-65
2021/05/18 02:16:26;;;;;;;8.10;0.40;;;9.80;99.90;;;;;;4383708;32;20086;-65
2021/05/18 02:19:02;;;;;;;0.90;0.90;;;9.90;99.90;;;;;;4384320;32;20130;-65
2021/05/18 02:21:42;;;;;;;0.40;0.40;;;9.90;99.90;;;;;;4397398;32;20082;-65
2021/05/18 02:25:08;;;;;;;0.40;0.40;;;9.90;99.90;;;;;;4398525;32;20062;-65
2021/05/18 02:26:54;;;;;;;0.62;0.62;;;9.90;99.90;;;;;;4390460;32;20432;-65
2021/05/18 02:29:20;;;;;;;0.60;0.60;;;9.90;99.90;;;;;;4398180;32;20200;-65
2021/05/18 02:31:46;;;;;;;0.30;0.30;;;9.90;99.90;;;;;;4397043;32;20063;-65
2021/05/18 02:34:11;;;;;;;0.30;0.30;;;10.00;99.90;;;;;;4397623;32;20158;-65
2021/05/18 02:36:37;;;;;;;0.30;0.30;;;9.90;99.90;;;;;;4398376;32;20483;-65
2021/05/18 02:39:03;;;;;;;0.30;0.30;;;9.80;99.90;;;;;;4397977;32;20421;-65
2021/05/18 02:41:29;;;;;;;0.30;0.30;;;9.80;99.90;;;;;;4397084;32;20086;-65
2021/05/18 02:49:15;;;;;;;0.85;0.65;;;9.80;99.90;;;;;;4397006;32;20133;-65
2021/05/18 02:51:44;;;;;;;0.75;0.52;;;9.80;99.90;;;;;;4397602;32;20408;-65
2021/05/18 02:54:11;;;;;;;0.37;0.37;;;9.90;99.90;;;;;;4384534;32;20062;-65
2021/05/18 02:56:44;;;;;;;0.32;0.32;;;9.80;99.90;;;;;;4397393;32;20070;-65
2021/05/18 03:01:37;;;;;;;0.30;0.30;;;9.80;99.90;;;;;;4396926;32;20177;-65
2021/05/18 03:04:04;;;;;;;0.85;0.50;;;9.90;99.90;;;;;;4398063;32;20080;-65
2021/05/18 03:06:29;;;;;;;0.57;0.57;;;10.10;99.90;;;;;;4396247;32;20133;-64
2021/05/18 03:08:55;;;;;;;0.30;0.30;;;10.20;99.90;;;;;;4397550;32;20562;-66
2021/05/18 03:11:21;;;;;;;0.30;0.30;;;10.20;99.90;;;;;;4396774;32;20124;-67
2021/05/18 03:13:46;;;;;;;0.30;0.30;;;10.30;99.90;;;;;;4397080;32;20086;-65
2021/05/18 03:16:12;;;;;;;0.75;0.50;;;10.40;99.90;;;;;;4397556;32;20125;-65
2021/05/18 03:18:38;;;;;;;3.62;0.50;;;10.40;99.90;;;;;;4382595;32;20100;-67
2021/05/18 03:21:04;;;;;;;0.20;0.20;;;10.50;99.90;;;;;;4383259;32;20396;-67
2021/05/18 03:23:29;;;;;;;0.47;0.45;;;10.50;99.90;;;;;;4399272;32;20483;-66
2021/05/18 03:25:55;;;;;;;0.30;0.30;;;10.50;99.90;;;;;;4400305;32;20074;-67
2021/05/18 03:28:21;;;;;;;0.40;0.40;;;10.50;99.90;;;;;;4399527;32;20150;-66
2021/05/18 03:30:56;;;;;;;0.30;0.30;;;10.50;99.90;;;;;;4399683;32;20169;-66
2021/05/18 03:34:33;;;;;;;0.28;0.28;;;10.50;99.90;;;;;;4387336;32;20476;-67
2021/05/18 03:36:06;;;;;;;0.30;0.30;;;10.70;99.90;;;;;;4377045;32;20071;-66
2021/05/18 03:38:38;;;;;;;0.40;0.40;;;10.80;99.90;;;;;;4399188;32;20074;-66
2021/05/18 03:41:10;;;;;;;0.40;0.40;;;10.70;99.90;;;;;;4386673;32;20216;-66
2021/05/18 03:43:47;;;;;;;0.20;0.20;;;10.70;99.90;;;;;;4387487;32;20066;-66
2021/05/18 03:52:19;;;;;;;0.40;0.40;;;10.80;99.90;;;;;;4399318;32;20126;-66
2021/05/18 03:52:53;;;;;;;0.30;0.30;;;10.80;99.90;;;;;;4398589;32;20133;-66
2021/05/18 03:54:43;;;;;;;0.30;0.30;;;10.80;99.90;;;;;;4388164;32;20089;-66
2021/05/18 04:02:41;;;;;;;0.30;0.30;;;10.80;99.90;;;;;;4399216;32;20090;-66
2021/05/18 04:03:19;;;;;;;0.20;0.20;;;10.90;99.90;;;;;;4393106;32;20129;-66
2021/05/18 04:11:00;;;;;;;0.30;0.30;;;11.00;99.90;;;;;;4398259;32;20074;-66
2021/05/18 04:16:57;;;;;;;0.60;0.47;;;11.10;99.90;;;;;;4399359;32;20141;-66
2021/05/18 04:18:52;;;;;;;0.30;0.30;;;11.10;99.90;;;;;;4386778;32;20073;-66
2021/05/18 04:21:32;;;;;;;0.30;0.30;;;11.10;99.90;;;;;;4379273;32;20078;-66
2021/05/18 04:24:33;;;;;;;0.33;0.33;;;11.10;99.90;;;;;;4395158;32;20058;-66
2021/05/18 04:40:50;;;;;;;0.30;0.30;;;11.40;99.90;;;;;;4386310;32;20137;-66
2021/05/18 04:43:29;;;;;;;0.37;0.37;;;11.40;99.90;;;;;;4390456;32;20594;-66
2021/05/18 04:49:02;;;;;;;0.45;0.45;;;11.50;99.90;;;;;;4391149;32;20073;-66
2021/05/18 04:51:22;;;;;;;0.30;0.28;;;11.50;99.90;;;;;;4385624;32;20070;-66
2021/05/18 04:59:06;;;;;;;0.35;0.35;;;11.50;99.90;;;;;;4387600;32;20058;-66
2021/05/18 05:01:48;;;;;;;0.20;0.20;;;11.50;99.90;;;;;;4389270;32;20195;-66
2021/05/18 05:06:10;;;;;;;0.40;0.40;;;11.60;99.90;;;;;;4377213;32;20075;-66
2021/05/18 05:07:01;;;;;;;0.30;0.30;;;11.60;99.90;;;;;;4385214;32;20082;-66
2021/05/18 05:09:29;;;;;;;0.30;0.30;;;11.60;99.90;;;;;;4398971;32;20171;-66
2021/05/18 05:14:40;;;;;;;0.20;0.20;;;11.80;99.90;;;;;;4386203;32;20062;-66
2021/05/18 05:17:06;;;;;;;0.43;0.43;;;11.80;99.90;;;;;;4383450;32;20112;-66
2021/05/18 05:19:32;;;;;;;0.20;0.20;;;11.80;99.90;;;;;;4385770;32;20062;-67
2021/05/18 05:21:59;;;;;;;0.35;0.35;;;11.80;99.90;;;;;;4399570;32;20061;-66
2021/05/18 05:24:25;;;;;;;0.70;0.70;;;11.70;99.90;;;;;;4397783;32;20058;-66
2021/05/18 05:26:52;;;;;;;0.43;0.43;;;11.70;99.90;;;;;;4369703;32;20141;-66
2021/05/18 05:29:19;;;;;;;1.98;0.40;;;11.90;99.90;;;;;;4384523;32;20573;-66
2021/05/18 05:31:46;;;;;;;0.30;0.30;;;11.90;99.90;;;;;;4354853;32;20460;-66
2021/05/18 05:34:11;;;;;;;1.00;0.35;;;12.00;99.90;;;;;;4372857;32;20449;-66
2021/05/18 05:36:38;;;;;;;1.98;0.50;;;12.00;99.90;;;;;;4391118;32;20127;-66
2021/05/18 05:39:10;;;;;;;0.30;0.30;;;12.00;99.90;;;;;;4390587;32;20120;-66
2021/05/18 05:41:36;;;;;;;0.22;0.22;;;12.10;99.90;;;;;;4393567;32;20102;-66
2021/05/18 05:44:02;;;;;;;1.40;0.93;;;12.20;99.90;;;;;;4388771;32;20090;-66
2021/05/18 05:46:27;;;;;;;0.40;0.40;;;12.30;99.90;;;;;;4395114;32;20521;-66
2021/05/18 05:48:53;;;;;;;0.28;0.28;;;12.30;99.90;;;;;;4394410;32;20074;-66
2021/05/18 05:51:21;;;;;;;0.35;0.35;;;12.20;99.90;;;;;;4395642;32;21383;-66
2021/05/18 05:53:46;;;;;;;0.30;0.30;;;12.30;99.90;;;;;;4395413;32;20520;-66
2021/05/18 05:56:12;;;;;;;0.93;0.65;;;12.20;99.90;;;;;;4396697;32;20082;-66
2021/05/18 05:58:37;;;;;;;0.77;0.77;;;12.30;99.90;;;;;;4395327;32;20082;-66
2021/05/18 06:01:03;;;;;;;0.47;0.47;;;12.40;99.90;;;;;;4395161;32;20078;-66
2021/05/18 06:03:28;;;;;;;1.00;0.77;;;12.40;99.90;;;;;;4391485;32;20440;-64
2021/05/18 06:05:53;;;;;;;0.35;0.32;;;12.40;99.90;;;;;;4395194;32;20281;-65
2021/05/18 06:08:19;;;;;;;0.68;0.50;;;12.30;99.90;;;;;;4394881;32;20429;-64
2021/05/18 06:10:47;;;;;;;0.77;0.55;;;12.30;99.90;;;;;;4394554;32;20070;-64
2021/05/18 06:14:24;;;;;;;0.35;0.35;;;12.30;99.90;;;;;;4393661;32;20070;-64
2021/05/18 06:16:30;;;;;;;0.40;0.40;;;12.40;99.90;;;;;;4385038;32;20432;-64
2021/05/18 06:29:42;;;;;;;0.80;0.77;;;12.50;99.90;;;;;;4383244;32;20069;-64
2021/05/18 06:35:41;;;;;;;2.67;0.80;;;12.50;99.90;;;;;;4378343;32;20183;-65
2021/05/18 06:41:42;;;;;;;0.68;0.50;;;12.50;99.90;;;;;;4380828;32;20090;-64
2021/05/18 06:43:52;;;;;;;0.35;0.35;;;12.60;99.90;;;;;;4382632;32;20674;-65
2021/05/18 06:46:23;;;;;;;0.50;0.50;;;12.70;99.90;;;;;;4393754;32;20500;-65
2021/05/18 06:48:56;;;;;;;2.25;0.55;;;12.70;99.90;;;;;;4389822;32;20089;-64
2021/05/18 06:51:23;;;;;;;1.65;0.73;;;12.90;99.90;;;;;;4379021;32;20078;-64
2021/05/18 06:53:48;;;;;;;1.17;0.30;;;12.90;99.90;;;;;;4377555;32;21355;-65
2021/05/18 06:56:14;;;;;;;0.55;0.55;;;13.00;99.90;;;;;;4378730;32;20066;-64
2021/05/18 07:01:07;;;;;;;21.12;0.73;;;12.90;99.90;;;;;;4386222;32;20097;-64
2021/05/18 07:03:39;;;;;;;0.90;0.57;;;12.90;99.90;;;;;;4373068;32;20074;-65
2021/05/18 07:06:21;;;;;;;1.95;0.65;;;12.90;99.90;;;;;;4387556;32;20078;-64
2021/05/18 07:11:14;;;;;;;0.43;0.43;;;12.90;99.90;;;;;;4382722;32;20097;-65
2021/05/18 07:13:39;;;;;;;0.35;0.35;;;12.80;99.90;;;;;;4397352;32;20434;-64
2021/05/18 07:16:05;;;;;;;0.68;0.68;;;12.80;99.90;;;;;;4402746;32;20066;-64
2021/05/18 07:18:31;;;;;;;0.35;0.35;;;12.90;99.90;;;;;;4385679;32;20066;-64
2021/05/18 07:20:56;;;;;;;0.73;0.73;;;12.90;99.90;;;;;;4377366;32;20050;-64
2021/05/18 07:23:24;;;;;;;0.55;0.55;;;13.00;99.90;;;;;;4407017;32;20184;-64
2021/05/18 07:25:50;;;;;;;0.43;0.43;;;13.00;99.90;;;;;;4383550;32;20317;-64
2021/05/18 07:28:17;;;;;;;0.68;0.68;;;13.10;99.90;;;;;;4385238;32;20097;-62
2021/05/18 07:30:43;;;;;;;0.43;0.43;;;13.10;99.90;;;;;;4391923;32;20080;-65
2021/05/18 07:33:08;;;;;;;2.47;0.90;;;13.10;99.90;;;;;;4376428;32;20141;-65
2021/05/18 07:35:35;;;;;;;3.30;0.50;;;13.20;99.90;;;;;;4374082;32;20637;-64
2021/05/18 07:38:01;;;;;;;0.80;0.62;;;13.20;99.90;;;;;;4382133;32;20125;-66
2021/05/18 07:40:27;;;;;;;2.95;0.82;;;13.20;99.90;;;;;;4391694;32;20475;-64
2021/05/18 07:42:53;;;;;;;1.65;0.68;;;13.10;99.90;;;;;;4380169;32;20381;-63
2021/05/18 07:45:25;;;;;;;0.50;0.50;;;13.10;99.90;;;;;;4373672;32;20125;-64
2021/05/18 07:47:59;;;;;;;0.40;0.40;;;13.20;99.90;;;;;;4377977;32;20520;-64
2021/05/18 07:50:37;;;;;;;0.50;0.50;;;13.00;99.90;;;;;;4377902;32;20050;-65
2021/05/18 07:59:37;;;;;;;0.40;0.40;;;12.70;99.90;;;;;;4384354;32;20382;-64
2021/05/18 08:02:26;;;;;;;0.20;0.20;;;12.70;99.90;;;;;;4379010;32;20198;-66
2021/05/18 08:05:21;;;;;;;0.43;0.32;;;12.80;99.90;;;;;;4375409;32;20090;-64
2021/05/18 08:06:50;;;;;;;1.23;0.50;;;12.60;99.90;;;;;;4370465;32;20562;-65
2021/05/18 08:09:18;;;;;;;0.20;0.20;;;12.60;99.90;;;;;;4385293;32;20073;-65
2021/05/18 08:11:43;;;;;;;0.30;0.30;;;12.60;99.90;;;;;;4384016;32;20439;-65
2021/05/18 08:14:09;;;;;;;0.20;0.20;;;12.50;99.90;;;;;;4372452;32;20078;-64
2021/05/18 08:17:42;;;;;;;0.22;0.22;;;12.50;99.90;;;;;;4387836;32;20502;-65
2021/05/18 08:19:40;;;;;;;0.40;0.40;;;12.50;99.90;;;;;;4370887;32;20095;-65
2021/05/18 08:23:01;;;;;;;0.30;0.30;;;12.50;99.90;;;;;;4373534;32;20065;-65
2021/05/18 08:47:38;;;;;;;0.20;0.20;;;13.10;99.90;;;;;;4373240;32;20082;-65
2021/05/18 08:47:47;;;;;;;0.55;0.55;;;13.20;99.90;;;;;;4372920;32;20110;-65
2021/05/18 08:58:25;;;;;;;0.30;0.30;;;13.40;99.90;;;;;;4383809;32;20089;-63
2021/05/18 09:01:40;;;;;;;0.28;0.28;;;13.60;99.90;;;;;;4375205;32;20276;-64
2021/05/18 09:30:47;;;;;;;0.20;0.20;;;13.50;99.90;;;;;;4377520;32;20066;-65
2021/05/18 09:34:58;;;;;;;0.30;0.30;;;13.40;99.90;;;;;;4375527;32;20171;-65
2021/05/18 09:41:59;;;;;;;0.65;0.65;;;13.40;99.90;;;;;;4389399;32;20117;-65
2021/05/18 09:47:10;;;;;;;0.40;0.40;;;13.10;99.90;;;;;;4451983;32;20097;-64
2021/05/18 09:48:46;;;;;;;0.30;0.30;;;13.10;99.90;;;;;;4437793;32;20131;-66
2021/05/18 09:50:53;;;;;;;0.30;0.30;;;13.10;99.90;;;;;;4447416;32;20060;-64
2021/05/18 10:14:42;;;;;;;0.20;0.20;;;13.10;99.90;;;;;;4443436;32;20145;-66
2021/05/18 10:21:32;;;;;;;0.32;0.32;;;13.40;99.90;;;;;;4446521;32;20277;-65
2021/05/18 10:21:50;;;;;;;0.30;0.30;;;13.60;99.90;;;;;;4443500;32;20110;-65
2021/05/18 10:22:23;;;;;;;0.20;0.20;;;13.70;99.90;;;;;;4437309;32;20069;-65
2021/05/18 10:25:38;;;;;;;0.30;0.30;;;13.70;99.90;;;;;;4433046;32;20587;-65
2021/05/18 10:27:04;;;;;;;0.30;0.30;;;13.70;99.90;;;;;;4439142;32;20524;-64
2021/05/18 10:34:38;;;;;;;0.30;0.30;;;13.70;99.90;;;;;;4437781;32;20069;-65
2021/05/18 10:37:24;;;;;;;0.30;0.30;;;13.80;99.90;;;;;;4446946;32;20131;-64
2021/05/18 10:40:26;;;;;;;1.75;0.65;;;13.80;99.90;;;;;;4455238;32;20421;-65
2021/05/18 10:43:09;;;;;;;2.05;0.98;;;13.70;99.90;;;;;;4453861;32;20072;-64
2021/05/18 10:45:57;;;;;;;1.17;0.88;;;14.10;99.90;;;;;;4452016;32;20072;-65
2021/05/18 10:48:42;;;;;;;0.20;0.20;;;15.10;99.90;;;;;;4447090;32;20057;-65
2021/05/18 10:51:30;;;;;;;0.47;0.40;;;15.50;99.90;;;;;;4446904;32;20077;-64
2021/05/18 10:54:22;;;;;;;0.20;0.20;;;16.00;99.90;;;;;;4439597;32;20086;-65
2021/05/18 10:56:58;;;;;;;0.20;0.20;;;16.20;99.90;;;;;;4437331;32;20104;-64
2021/05/18 10:59:42;;;;;;;0.32;0.32;;;16.60;99.90;;;;;;4440497;32;20541;-64
2021/05/18 11:02:14;;;;;;;0.22;0.22;;;17.20;99.90;;;;;;4437685;32;20097;-65
2021/05/18 11:04:43;;;;;;;0.40;0.40;;;17.20;99.90;;;;;;4436029;32;20546;-64
2021/05/18 11:07:10;;;;;;;0.32;0.32;;;16.60;99.90;;;;;;4440269;32;20122;-65
2021/05/18 11:09:36;;;;;;;2.78;0.40;;;16.60;99.90;;;;;;4433314;32;20061;-64
2021/05/18 11:12:06;;;;;;;0.22;0.22;;;16.30;99.90;;;;;;4438800;32;20159;-65
2021/05/18 11:14:33;;;;;;;0.30;0.30;;;16.20;99.90;;;;;;4437173;32;20120;-65
2021/05/18 11:17:08;;;;;;;0.50;0.50;;;16.10;99.90;;;;;;4433789;32;20089;-65
2021/05/18 11:19:45;;;;;;;0.55;0.55;;;16.40;99.90;;;;;;4434398;32;20069;-65
2021/05/18 11:22:11;;;;;;;0.57;0.47;;;16.40;99.90;;;;;;4435209;32;20057;-66
2021/05/18 11:24:48;;;;;;;0.50;0.50;;;16.40;99.90;;;;;;4435949;32;20109;-66
2021/05/18 11:27:13;;;;;;;0.30;0.30;;;16.40;99.90;;;;;;4432278;32;20574;-66
2021/05/18 11:29:39;;;;;;;0.20;0.20;;;16.40;99.90;;;;;;4431496;32;20337;-64
2021/05/18 11:32:10;;;;;;;1.30;0.77;;;16.40;99.90;;;;;;4433952;32;20134;-65
2021/05/18 11:34:57;;;;;;;;;;;16.50;99.90;;;;;;4430044;32;20443;-65
2021/05/18 11:37:23;;;;;;;0.28;0.28;;;16.50;99.90;;;;;;4431565;32;20047;-66
2021/05/18 11:39:49;;;;;;;0.93;0.57;;;16.50;99.90;;;;;;4432120;32;20076;-65
2021/05/18 11:42:29;;;;;;;19.02;0.65;;;16.60;99.90;;;;;;4432432;32;20088;-66
2021/05/18 11:45:14;;;;;;;0.60;0.60;;;17.10;99.90;;;;;;4430851;32;20073;-66
2021/05/18 11:47:41;;;;;;;0.30;0.30;;;17.40;99.90;;;;;;4429185;32;20510;-65
2021/05/18 11:50:25;;;;;;;0.30;0.30;;;17.30;99.90;;;;;;4430804;32;20143;-65
2021/05/18 11:52:52;;;;;;;0.30;0.30;;;17.10;99.90;;;;;;4433570;32;20505;-66
2021/05/18 11:55:20;;;;;;;0.30;0.30;;;16.90;99.90;;;;;;4430772;32;20081;-66
2021/05/18 11:57:46;;;;;;;0.82;0.50;;;16.60;99.90;;;;;;4431725;32;20073;-66
2021/05/18 12:00:33;;;;;;;0.40;0.40;;;16.40;99.90;;;;;;4431560;32;20514;-65
2021/05/18 12:03:01;;;;;;;2.62;0.45;;;16.10;99.90;;;;;;4427823;32;20085;-66
2021/05/18 12:05:27;;;;;;;0.25;0.25;;;16.10;99.90;;;;;;4431908;32;20314;-65
2021/05/18 12:07:52;;;;;;;1.00;0.40;;;16.10;99.90;;;;;;4433145;32;20483;-65
2021/05/18 12:10:35;;;;;;;0.30;0.30;;;16.00;99.90;;;;;;4434686;32;20666;-66
2021/05/18 12:13:02;;;;;;;0.30;0.30;;;15.90;99.90;;;;;;4431793;32;20097;-66
2021/05/18 12:15:28;;;;;;;0.30;0.30;;;15.70;99.90;;;;;;4429581;32;20179;-64
2021/05/18 12:17:55;;;;;;;0.30;0.30;;;15.70;99.90;;;;;;4430549;32;20085;-64
2021/05/18 12:20:22;;;;;;;0.30;0.30;;;15.50;99.90;;;;;;4430481;32;20497;-65
2021/05/18 12:22:49;;;;;;;0.30;0.30;;;15.40;99.90;;;;;;4430846;32;20113;-65
2021/05/18 12:25:35;;;;;;;0.90;0.73;;;15.40;99.90;;;;;;4433407;32;20080;-65
2021/05/18 12:28:11;;;;;;;1.85;0.90;;;15.20;99.90;;;;;;4437400;32;20085;-65
2021/05/18 12:30:39;;;;;;;3.65;0.85;;;15.20;99.90;;;;;;4439595;32;20073;-65
2021/05/18 12:33:06;;;;;;;0.20;0.20;;;15.20;99.90;;;;;;4426850;32;20069;-65
2021/05/18 12:35:31;;;;;;;9.23;0.50;;;15.10;99.90;;;;;;4436845;32;20466;-65
2021/05/18 12:37:57;;;;;;;0.40;0.40;;;15.00;99.90;;;;;;4439578;32;20085;-64
2021/05/18 12:40:32;;;;;;;0.20;0.20;;;15.00;99.90;;;;;;4440607;32;20155;-64
2021/05/18 12:43:18;;;;;;;0.30;0.30;;;15.10;99.90;;;;;;4438152;32;20140;-65
2021/05/18 12:45:44;;;;;;;0.37;0.37;;;15.20;99.90;;;;;;4427698;32;20514;-65
2021/05/18 12:48:13;;;;;;;0.20;0.20;;;15.10;99.90;;;;;;4443862;32;20066;-65
2021/05/18 12:50:42;;;;;;;2.97;1.08;;;15.10;99.90;;;;;;4441471;32;20061;-65
2021/05/18 12:53:29;;;;;;;1.15;0.95;;;15.10;99.90;;;;;;4435178;32;20146;-64
2021/05/18 12:55:55;;;;;;;0.30;0.30;;;15.30;99.90;;;;;;4434186;32;20132;-65
2021/05/18 12:58:28;;;;;;;0.32;0.32;;;15.50;99.90;;;;;;4437965;32;20162;-63
2021/05/18 13:01:06;;;;;;;2.47;1.60;;;15.60;99.90;;;;;;4439827;32;20081;-67
2021/05/18 13:03:32;;;;;;;0.20;0.20;;;15.60;99.90;;;;;;4427228;32;20135;-66
2021/05/18 13:05:58;;;;;;;0.40;0.40;;;15.60;99.90;;;;;;4442218;32;20068;-65
2021/05/18 13:08:29;;;;;;;0.30;0.30;;;15.80;99.90;;;;;;4440140;32;20155;-65
2021/05/18 13:13:54;;;;;;;0.20;0.20;;;15.80;99.90;;;;;;4438393;32;20052;-65
2021/05/18 13:16:23;;;;;;;0.55;0.50;;;15.70;99.90;;;;;;4443424;32;20490;-66
2021/05/18 13:19:03;;;;;;;0.30;0.30;;;15.80;99.90;;;;;;4442211;32;20072;-65
2021/05/18 13:21:37;;;;;;;0.20;0.20;;;15.80;99.90;;;;;;4438702;32;20518;-65
2021/05/18 13:26:35;;;;;;;0.25;0.25;;;16.30;99.90;;;;;;4425290;32;20060;-65
2021/05/18 13:29:04;;;;;;;0.30;0.30;;;16.90;99.90;;;;;;4441680;32;20060;-65
2021/05/18 13:31:31;;;;;;;2.87;0.65;;;17.60;99.90;;;;;;4440851;32;20643;-66
2021/05/18 13:33:57;;;;;;;0.20;0.20;;;18.10;99.90;;;;;;4437141;32;20068;-65
2021/05/18 13:36:24;;;;;;;0.37;0.35;;;18.90;99.90;;;;;;4440819;32;20056;-65
2021/05/18 13:38:49;;;;;;;0.10;0.10;;;19.90;99.90;;;;;;4443230;32;20064;-65
2021/05/18 13:41:15;;;;;;;0.15;0.15;;;21.20;98.50;;;;;;4441820;32;20089;-65
2021/05/18 13:43:40;;;;;;;1.12;0.30;;;22.00;95.10;;;;;;4443684;32;20093;-66
2021/05/18 13:46:06;;;;;;;0.10;0.10;;;21.90;94.40;;;;;;4442162;32;20072;-66
2021/05/18 13:48:32;;;;;;;0.30;0.30;;;21.40;93.20;;;;;;4441679;32;20073;-65
2021/05/18 13:50:58;;;;;;;0.30;0.30;;;20.40;94.30;;;;;;4442379;32;20517;-65
2021/05/18 13:53:23;;;;;;;0.20;0.20;;;19.90;94.70;;;;;;4425292;32;20114;-65
2021/05/18 13:55:49;;;;;;;0.28;0.28;;;19.80;95.40;;;;;;4442790;32;20120;-65
2021/05/18 13:58:16;;;;;;;0.20;0.20;;;19.80;94.30;;;;;;4442906;32;20065;-65
2021/05/18 14:00:41;;;;;;;1.75;0.40;;;19.80;93.70;;;;;;4441551;32;20105;-65
2021/05/18 14:03:07;;;;;;;0.20;0.20;;;20.30;93.70;;;;;;4433731;32;20140;-65
2021/05/18 14:05:32;;;;;;;0.60;0.60;;;21.10;92.90;;;;;;4440398;32;20119;-64
2021/05/18 14:08:23;;;;;;;1.27;0.77;;;21.00;92.40;;;;;;4440466;32;20544;-65
2021/05/18 14:10:50;;;;;;;0.32;0.32;;;20.50;93.60;;;;;;4441510;32;20474;-65
2021/05/18 14:13:16;;;;;;;0.80;0.37;;;20.70;92.60;;;;;;4427361;32;20077;-65
2021/05/18 14:15:42;;;;;;;0.20;0.20;;;20.10;94.00;;;;;;4441296;32;20119;-64
2021/05/18 14:18:10;;;;;;;0.30;0.30;;;19.50;94.60;;;;;;4437434;32;20085;-64
2021/05/18 14:20:36;;;;;;;0.20;0.20;;;19.00;95.20;;;;;;4440844;32;20545;-64
2021/05/18 14:23:02;;;;;;;0.40;0.40;;;18.40;96.00;;;;;;4440816;32;20077;-65
2021/05/18 14:25:27;;;;;;;0.65;0.45;;;18.10;97.50;;;;;;4441170;32;20062;-65
2021/05/18 14:27:53;;;;;;;0.20;0.20;;;17.90;97.90;;;;;;4444208;32;20084;-65
2021/05/18 14:30:18;;;;;;;0.80;0.68;;;17.70;98.20;;;;;;4443582;32;20406;-65
2021/05/18 14:32:44;;;;;;;0.20;0.20;;;17.60;98.40;;;;;;4425856;32;20089;-65
2021/05/18 14:35:12;;;;;;;0.20;0.20;;;17.60;99.40;;;;;;4434610;32;20094;-66
2021/05/18 14:37:41;;;;;;;0.30;0.30;;;17.60;98.50;;;;;;4444431;32;20085;-65
2021/05/18 14:42:52;;;;;;;3.25;0.85;;;17.40;99.70;;;;;;4437160;32;20493;-65
2021/05/18 14:45:23;;;;;;;0.30;0.30;;;17.40;99.90;;;;;;4443804;32;20085;-64
2021/05/18 14:48:06;;;;;;;0.30;0.30;;;17.20;99.70;;;;;;4431289;32;20065;-65
2021/05/18 14:54:07;;;;;;;0.30;0.30;;;16.90;99.50;;;;;;4435306;32;20491;-66
2021/05/18 14:56:06;;;;;;;0.20;0.20;;;16.70;99.00;;;;;;4443845;32;20097;-65
2021/05/18 14:58:32;;;;;;;0.20;0.20;;;16.60;99.20;;;;;;4429618;32;20511;-65
2021/05/18 15:00:57;;;;;;;0.20;0.20;;;16.60;98.40;;;;;;4430518;32;20077;-65
2021/05/18 15:03:23;;;;;;;0.20;0.20;;;16.60;99.70;;;;;;4443385;32;20130;-66
2021/05/18 15:05:49;;;;;;;7.00;0.40;;;16.70;98.50;;;;;;4444968;32;20061;-66
2021/05/18 15:08:14;;;;;;;0.55;0.55;;;16.70;98.70;;;;;;4435297;32;20144;-66
2021/05/18 15:10:40;;;;;;;0.20;0.20;;;16.80;98.90;;;;;;4431380;32;20065;-66
2021/05/18 15:13:06;;;;;;;0.35;0.30;;;16.90;99.70;;;;;;4442426;32;20485;-66
2021/05/18 15:15:32;;;;;;;0.30;0.30;;;16.90;99.80;;;;;;4446086;32;20073;-66
2021/05/18 15:17:58;;;;;;;0.85;0.77;;;17.00;99.30;;;;;;4443543;32;20065;-66
2021/05/18 15:20:25;;;;;;;0.30;0.30;;;17.20;99.00;;;;;;4440863;32;20115;-66
2021/05/18 15:22:51;;;;;;;4.15;0.77;;;17.40;98.60;;;;;;4430771;32;20052;-66
2021/05/18 15:25:17;;;;;;;0.20;0.20;;;17.60;98.30;;;;;;4445065;32;20196;-66
2021/05/18 15:27:42;;;;;;;0.40;0.40;;;17.60;98.00;;;;;;4437202;32;20129;-66
2021/05/18 15:30:09;;;;;;;0.40;0.40;;;17.20;98.50;;;;;;4428979;32;20068;-66
2021/05/18 15:32:36;;;;;;;0.25;0.25;;;16.90;99.70;;;;;;4440159;32;20073;-66
2021/05/18 15:35:02;;;;;;;0.35;0.35;;;16.80;99.80;;;;;;4443427;32;20115;-66
2021/05/18 15:37:27;;;;;;;0.30;0.30;;;16.50;99.90;;;;;;4444456;32;20150;-65
2021/05/18 15:39:53;;;;;;;0.30;0.30;;;16.40;99.90;;;;;;4451757;32;20068;-65
2021/05/18 15:42:19;;;;;;;0.30;0.30;;;16.30;99.90;;;;;;4459508;32;20399;-65
2021/05/18 15:44:45;;;;;;;2.90;1.15;;;16.20;99.90;;;;;;4449754;32;20061;-65
2021/05/18 15:47:10;;;;;;;3.20;0.40;;;16.10;99.90;;;;;;4442493;32;20134;-65
2021/05/18 15:49:36;;;;;;;0.32;0.30;;;16.20;99.90;;;;;;4436962;32;20420;-65
2021/05/18 15:52:02;;;;;;;0.20;0.20;;;16.30;99.90;;;;;;4436895;32;20069;-65
2021/05/18 15:54:27;;;;;;;0.30;0.30;;;16.30;99.90;;;;;;4431608;32;20082;-65
2021/05/18 15:56:53;;;;;;;0.30;0.30;;;16.30;99.90;;;;;;4444248;32;20077;-65
2021/05/18 15:59:19;;;;;;;0.77;0.77;;;16.40;99.90;;;;;;4443487;32;20084;-65